sensor_id;sensor_type;location;lat;lon;timestamp;P1;durP1;ratioP1;P2;durP2;ratioP2
18677;SDS011;9469;51.114;13.914;2023-07-31T00:02:41;3.57;;;1.50;;
18677;SDS011;9469;51.114;13.914;2023-07-31T00:07:46;4.20;;;2.13;;
18677;SDS011;9469;51.114;13.914;2023-07-31T00:12:54;5.07;;;2.30;;
18677;SDS011;9469;51.114;13.914;2023-07-31T00:17:59;4.97;;;1.97;;
18677;SDS011;9469;51.114;13.914;2023-07-31T00:23:04;7.10;;;1.90;;
18677;SDS011;9469;51.114;13.914;2023-07-31T00:28:12;5.73;;;1.67;;
18677;SDS011;9469;51.114;13.914;2023-07-31T00:33:17;6.17;;;1.97;;
18677;SDS011;9469;51.114;13.914;2023-07-31T00:38:22;4.70;;;1.77;;
18677;SDS011;9469;51.114;13.914;2023-07-31T00:43:30;4.97;;;1.63;;
18677;SDS011;9469;51.114;13.914;2023-07-31T00:48:35;7.60;;;2.10;;
18677;SDS011;9469;51.114;13.914;2023-07-31T00:53:41;4.70;;;2.10;;
18677;SDS011;9469;51.114;13.914;2023-07-31T00:58:50;6.57;;;1.80;;
18677;SDS011;9469;51.114;13.914;2023-07-31T01:03:55;4.60;;;1.70;;
18677;SDS011;9469;51.114;13.914;2023-07-31T01:09:02;4.67;;;1.90;;
18677;SDS011;9469;51.114;13.914;2023-07-31T01:14:14;5.17;;;1.90;;
18677;SDS011;9469;51.114;13.914;2023-07-31T01:19:21;8.77;;;1.90;;
18677;SDS011;9469;51.114;13.914;2023-07-31T01:24:29;3.77;;;1.60;;
18677;SDS011;9469;51.114;13.914;2023-07-31T01:29:48;4.60;;;1.80;;
18677;SDS011;9469;51.114;13.914;2023-07-31T01:35:00;6.20;;;1.77;;
18677;SDS011;9469;51.114;13.914;2023-07-31T01:40:06;4.43;;;1.80;;
18677;SDS011;9469;51.114;13.914;2023-07-31T01:45:14;4.57;;;1.87;;
18677;SDS011;9469;51.114;13.914;2023-07-31T01:50:20;6.90;;;2.00;;
18677;SDS011;9469;51.114;13.914;2023-07-31T01:55:25;4.40;;;1.67;;
18677;SDS011;9469;51.114;13.914;2023-07-31T02:00:33;3.73;;;1.70;;
18677;SDS011;9469;51.114;13.914;2023-07-31T02:05:43;3.30;;;1.80;;
18677;SDS011;9469;51.114;13.914;2023-07-31T02:10:49;3.77;;;1.53;;
18677;SDS011;9469;51.114;13.914;2023-07-31T02:15:56;3.20;;;1.60;;
18677;SDS011;9469;51.114;13.914;2023-07-31T02:21:01;4.80;;;1.97;;
18677;SDS011;9469;51.114;13.914;2023-07-31T02:26:07;6.93;;;1.93;;
18677;SDS011;9469;51.114;13.914;2023-07-31T02:31:14;3.60;;;1.90;;
18677;SDS011;9469;51.114;13.914;2023-07-31T02:36:23;4.70;;;2.20;;
18677;SDS011;9469;51.114;13.914;2023-07-31T02:41:30;3.63;;;1.73;;
18677;SDS011;9469;51.114;13.914;2023-07-31T02:46:38;9.73;;;1.80;;
18677;SDS011;9469;51.114;13.914;2023-07-31T02:51:43;5.53;;;2.00;;
18677;SDS011;9469;51.114;13.914;2023-07-31T02:56:48;5.13;;;1.50;;
18677;SDS011;9469;51.114;13.914;2023-07-31T03:01:56;3.70;;;1.67;;
18677;SDS011;9469;51.114;13.914;2023-07-31T03:07:01;3.23;;;2.00;;
18677;SDS011;9469;51.114;13.914;2023-07-31T03:12:08;7.13;;;2.07;;
18677;SDS011;9469;51.114;13.914;2023-07-31T03:17:16;4.50;;;1.90;;
18677;SDS011;9469;51.114;13.914;2023-07-31T03:22:21;5.50;;;1.60;;
18677;SDS011;9469;51.114;13.914;2023-07-31T03:27:26;4.13;;;1.97;;
18677;SDS011;9469;51.114;13.914;2023-07-31T03:32:34;2.97;;;1.57;;
18677;SDS011;9469;51.114;13.914;2023-07-31T03:37:39;2.47;;;1.60;;
18677;SDS011;9469;51.114;13.914;2023-07-31T03:42:44;3.90;;;1.60;;
18677;SDS011;9469;51.114;13.914;2023-07-31T03:47:52;4.30;;;1.87;;
18677;SDS011;9469;51.114;13.914;2023-07-31T03:52:59;2.50;;;1.30;;
18677;SDS011;9469;51.114;13.914;2023-07-31T03:58:04;6.90;;;1.53;;
18677;SDS011;9469;51.114;13.914;2023-07-31T04:03:11;6.47;;;1.93;;
18677;SDS011;9469;51.114;13.914;2023-07-31T04:08:16;6.73;;;3.77;;
18677;SDS011;9469;51.114;13.914;2023-07-31T04:13:22;8.27;;;3.60;;
18677;SDS011;9469;51.114;13.914;2023-07-31T04:18:31;5.67;;;2.70;;
18677;SDS011;9469;51.114;13.914;2023-07-31T04:23:39;3.97;;;2.23;;
18677;SDS011;9469;51.114;13.914;2023-07-31T04:28:44;8.13;;;3.87;;
18677;SDS011;9469;51.114;13.914;2023-07-31T04:33:52;8.37;;;3.23;;
18677;SDS011;9469;51.114;13.914;2023-07-31T04:39:03;6.17;;;3.50;;
18677;SDS011;9469;51.114;13.914;2023-07-31T04:44:09;10.33;;;4.50;;
18677;SDS011;9469;51.114;13.914;2023-07-31T04:49:17;4.90;;;2.10;;
18677;SDS011;9469;51.114;13.914;2023-07-31T04:54:24;6.83;;;2.80;;
18677;SDS011;9469;51.114;13.914;2023-07-31T04:59:29;4.23;;;2.27;;
18677;SDS011;9469;51.114;13.914;2023-07-31T05:04:38;5.03;;;2.90;;
18677;SDS011;9469;51.114;13.914;2023-07-31T05:09:45;5.33;;;2.30;;
18677;SDS011;9469;51.114;13.914;2023-07-31T05:14:52;6.07;;;2.50;;
18677;SDS011;9469;51.114;13.914;2023-07-31T05:20:00;6.67;;;3.57;;
18677;SDS011;9469;51.114;13.914;2023-07-31T05:25:06;5.97;;;2.27;;
18677;SDS011;9469;51.114;13.914;2023-07-31T05:30:12;6.73;;;2.90;;
18677;SDS011;9469;51.114;13.914;2023-07-31T05:35:22;9.53;;;4.70;;
18677;SDS011;9469;51.114;13.914;2023-07-31T05:40:27;9.53;;;4.47;;
18677;SDS011;9469;51.114;13.914;2023-07-31T05:45:33;5.93;;;3.10;;
18677;SDS011;9469;51.114;13.914;2023-07-31T05:50:41;8.37;;;3.27;;
18677;SDS011;9469;51.114;13.914;2023-07-31T05:55:48;9.13;;;2.80;;
18677;SDS011;9469;51.114;13.914;2023-07-31T06:01:00;5.33;;;2.43;;
18677;SDS011;9469;51.114;13.914;2023-07-31T06:06:08;9.67;;;5.00;;
18677;SDS011;9469;51.114;13.914;2023-07-31T06:11:15;7.60;;;4.30;;
18677;SDS011;9469;51.114;13.914;2023-07-31T06:16:20;10.33;;;3.03;;
18677;SDS011;9469;51.114;13.914;2023-07-31T06:21:36;7.20;;;4.43;;
18677;SDS011;9469;51.114;13.914;2023-07-31T06:26:45;6.17;;;3.30;;
18677;SDS011;9469;51.114;13.914;2023-07-31T06:31:52;10.33;;;5.03;;
18677;SDS011;9469;51.114;13.914;2023-07-31T06:37:00;8.43;;;3.73;;
18677;SDS011;9469;51.114;13.914;2023-07-31T06:42:08;7.97;;;3.60;;
18677;SDS011;9469;51.114;13.914;2023-07-31T06:47:16;11.30;;;3.80;;
18677;SDS011;9469;51.114;13.914;2023-07-31T06:52:24;6.07;;;3.93;;
18677;SDS011;9469;51.114;13.914;2023-07-31T06:57:31;10.13;;;3.70;;
18677;SDS011;9469;51.114;13.914;2023-07-31T07:02:37;8.60;;;3.93;;
18677;SDS011;9469;51.114;13.914;2023-07-31T07:07:45;7.70;;;3.80;;
18677;SDS011;9469;51.114;13.914;2023-07-31T07:12:51;6.50;;;3.57;;
18677;SDS011;9469;51.114;13.914;2023-07-31T07:17:58;7.83;;;4.20;;
18677;SDS011;9469;51.114;13.914;2023-07-31T07:23:09;9.87;;;4.63;;
18677;SDS011;9469;51.114;13.914;2023-07-31T07:28:15;8.00;;;4.00;;
18677;SDS011;9469;51.114;13.914;2023-07-31T07:33:21;10.03;;;4.13;;
18677;SDS011;9469;51.114;13.914;2023-07-31T07:38:31;9.10;;;4.90;;
18677;SDS011;9469;51.114;13.914;2023-07-31T07:43:36;9.67;;;5.20;;
18677;SDS011;9469;51.114;13.914;2023-07-31T07:48:41;6.63;;;4.63;;
18677;SDS011;9469;51.114;13.914;2023-07-31T07:53:49;12.17;;;4.70;;
18677;SDS011;9469;51.114;13.914;2023-07-31T07:58:56;8.53;;;4.80;;
18677;SDS011;9469;51.114;13.914;2023-07-31T08:04:01;4.20;;;2.77;;
18677;SDS011;9469;51.114;13.914;2023-07-31T08:09:16;4.63;;;2.50;;
18677;SDS011;9469;51.114;13.914;2023-07-31T08:14:21;4.27;;;2.50;;
18677;SDS011;9469;51.114;13.914;2023-07-31T08:19:26;5.20;;;2.58;;
18677;SDS011;9469;51.114;13.914;2023-07-31T08:24:35;3.97;;;2.27;;
18677;SDS011;9469;51.114;13.914;2023-07-31T08:29:40;5.30;;;2.30;;
18677;SDS011;9469;51.114;13.914;2023-07-31T08:34:45;4.77;;;2.43;;
18677;SDS011;9469;51.114;13.914;2023-07-31T08:39:53;2.87;;;1.93;;
18677;SDS011;9469;51.114;13.914;2023-07-31T08:45:00;5.30;;;2.63;;
18677;SDS011;9469;51.114;13.914;2023-07-31T08:50:10;6.47;;;2.30;;
18677;SDS011;9469;51.114;13.914;2023-07-31T08:55:20;6.53;;;2.43;;
18677;SDS011;9469;51.114;13.914;2023-07-31T09:00:26;4.20;;;2.10;;
18677;SDS011;9469;51.114;13.914;2023-07-31T09:05:36;3.87;;;2.13;;
18677;SDS011;9469;51.114;13.914;2023-07-31T09:10:50;5.23;;;2.60;;
18677;SDS011;9469;51.114;13.914;2023-07-31T09:15:57;4.20;;;2.10;;
18677;SDS011;9469;51.114;13.914;2023-07-31T09:21:04;4.53;;;2.03;;
18677;SDS011;9469;51.114;13.914;2023-07-31T09:26:13;5.13;;;2.57;;
18677;SDS011;9469;51.114;13.914;2023-07-31T09:31:38;11.00;;;2.87;;
18677;SDS011;9469;51.114;13.914;2023-07-31T09:36:46;5.00;;;2.33;;
18677;SDS011;9469;51.114;13.914;2023-07-31T09:41:57;6.67;;;2.70;;
18677;SDS011;9469;51.114;13.914;2023-07-31T09:47:03;4.77;;;2.57;;
18677;SDS011;9469;51.114;13.914;2023-07-31T09:52:13;5.40;;;2.67;;
18677;SDS011;9469;51.114;13.914;2023-07-31T09:57:22;5.53;;;2.60;;
18677;SDS011;9469;51.114;13.914;2023-07-31T10:02:28;8.80;;;2.73;;
18677;SDS011;9469;51.114;13.914;2023-07-31T10:07:37;4.17;;;1.93;;
18677;SDS011;9469;51.114;13.914;2023-07-31T10:12:49;3.43;;;1.93;;
18677;SDS011;9469;51.114;13.914;2023-07-31T10:17:56;8.43;;;2.57;;
18677;SDS011;9469;51.114;13.914;2023-07-31T10:23:02;7.17;;;2.07;;
18677;SDS011;9469;51.114;13.914;2023-07-31T10:28:16;7.67;;;2.43;;
18677;SDS011;9469;51.114;13.914;2023-07-31T10:33:22;7.23;;;2.37;;
18677;SDS011;9469;51.114;13.914;2023-07-31T10:38:30;5.77;;;2.67;;
18677;SDS011;9469;51.114;13.914;2023-07-31T10:43:44;3.33;;;2.30;;
18677;SDS011;9469;51.114;13.914;2023-07-31T10:48:59;5.17;;;2.40;;
18677;SDS011;9469;51.114;13.914;2023-07-31T10:54:15;6.17;;;2.40;;
18677;SDS011;9469;51.114;13.914;2023-07-31T10:59:30;4.67;;;2.10;;
18677;SDS011;9469;51.114;13.914;2023-07-31T11:04:41;7.03;;;2.73;;
18677;SDS011;9469;51.114;13.914;2023-07-31T11:09:47;3.43;;;2.10;;
18677;SDS011;9469;51.114;13.914;2023-07-31T11:14:56;5.63;;;2.40;;
18677;SDS011;9469;51.114;13.914;2023-07-31T11:20:01;5.80;;;2.37;;
18677;SDS011;9469;51.114;13.914;2023-07-31T11:25:07;3.60;;;2.50;;
18677;SDS011;9469;51.114;13.914;2023-07-31T11:30:18;7.30;;;3.07;;
18677;SDS011;9469;51.114;13.914;2023-07-31T11:35:25;6.10;;;2.43;;
18677;SDS011;9469;51.114;13.914;2023-07-31T11:40:41;4.10;;;2.20;;
18677;SDS011;9469;51.114;13.914;2023-07-31T11:46:00;5.83;;;2.70;;
18677;SDS011;9469;51.114;13.914;2023-07-31T11:51:10;3.57;;;2.33;;
18677;SDS011;9469;51.114;13.914;2023-07-31T11:56:17;5.27;;;2.10;;
18677;SDS011;9469;51.114;13.914;2023-07-31T12:01:28;2.57;;;2.10;;
18677;SDS011;9469;51.114;13.914;2023-07-31T12:06:40;4.50;;;2.43;;
18677;SDS011;9469;51.114;13.914;2023-07-31T12:11:46;4.10;;;2.40;;
18677;SDS011;9469;51.114;13.914;2023-07-31T12:16:56;2.67;;;1.90;;
18677;SDS011;9469;51.114;13.914;2023-07-31T12:22:10;5.00;;;2.20;;
18677;SDS011;9469;51.114;13.914;2023-07-31T12:32:40;3.27;;;1.93;;
18677;SDS011;9469;51.114;13.914;2023-07-31T12:37:47;4.10;;;2.30;;
18677;SDS011;9469;51.114;13.914;2023-07-31T12:42:52;4.03;;;1.87;;
18677;SDS011;9469;51.114;13.914;2023-07-31T12:48:01;2.80;;;1.60;;
18677;SDS011;9469;51.114;13.914;2023-07-31T12:53:11;2.60;;;1.60;;
18677;SDS011;9469;51.114;13.914;2023-07-31T12:58:21;2.50;;;1.50;;
18677;SDS011;9469;51.114;13.914;2023-07-31T13:03:34;3.57;;;1.87;;
18677;SDS011;9469;51.114;13.914;2023-07-31T13:08:39;3.20;;;1.73;;
18677;SDS011;9469;51.114;13.914;2023-07-31T13:13:45;2.67;;;2.00;;
18677;SDS011;9469;51.114;13.914;2023-07-31T13:18:57;4.53;;;2.33;;
18677;SDS011;9469;51.114;13.914;2023-07-31T13:24:04;4.47;;;1.87;;
18677;SDS011;9469;51.114;13.914;2023-07-31T13:29:10;3.30;;;1.67;;
18677;SDS011;9469;51.114;13.914;2023-07-31T13:34:18;3.53;;;2.13;;
18677;SDS011;9469;51.114;13.914;2023-07-31T13:39:23;3.30;;;2.00;;
18677;SDS011;9469;51.114;13.914;2023-07-31T13:44:30;4.03;;;1.83;;
18677;SDS011;9469;51.114;13.914;2023-07-31T13:49:38;3.03;;;1.70;;
18677;SDS011;9469;51.114;13.914;2023-07-31T13:54:45;3.10;;;1.53;;
18677;SDS011;9469;51.114;13.914;2023-07-31T13:59:52;4.77;;;2.20;;
18677;SDS011;9469;51.114;13.914;2023-07-31T14:05:01;2.80;;;1.97;;
18677;SDS011;9469;51.114;13.914;2023-07-31T14:10:09;4.10;;;1.80;;
18677;SDS011;9469;51.114;13.914;2023-07-31T14:15:15;2.80;;;1.90;;
18677;SDS011;9469;51.114;13.914;2023-07-31T14:20:23;2.67;;;1.83;;
18677;SDS011;9469;51.114;13.914;2023-07-31T14:25:29;2.77;;;1.87;;
18677;SDS011;9469;51.114;13.914;2023-07-31T14:30:34;3.80;;;1.80;;
18677;SDS011;9469;51.114;13.914;2023-07-31T14:35:42;3.70;;;2.20;;
18677;SDS011;9469;51.114;13.914;2023-07-31T14:40:47;5.57;;;2.30;;
18677;SDS011;9469;51.114;13.914;2023-07-31T14:45:52;3.70;;;1.70;;
18677;SDS011;9469;51.114;13.914;2023-07-31T14:51:03;3.43;;;2.33;;
18677;SDS011;9469;51.114;13.914;2023-07-31T14:56:09;3.17;;;2.10;;
18677;SDS011;9469;51.114;13.914;2023-07-31T15:01:14;2.83;;;2.10;;
18677;SDS011;9469;51.114;13.914;2023-07-31T15:06:26;6.23;;;1.93;;
18677;SDS011;9469;51.114;13.914;2023-07-31T15:11:31;4.43;;;2.27;;
18677;SDS011;9469;51.114;13.914;2023-07-31T15:16:36;3.23;;;1.97;;
18677;SDS011;9469;51.114;13.914;2023-07-31T15:21:45;4.73;;;2.10;;
18677;SDS011;9469;51.114;13.914;2023-07-31T15:26:50;3.80;;;2.13;;
18677;SDS011;9469;51.114;13.914;2023-07-31T15:31:55;4.23;;;2.00;;
18677;SDS011;9469;51.114;13.914;2023-07-31T15:37:04;4.80;;;2.10;;
18677;SDS011;9469;51.114;13.914;2023-07-31T15:42:09;3.53;;;2.07;;
18677;SDS011;9469;51.114;13.914;2023-07-31T15:47:15;2.73;;;1.70;;
18677;SDS011;9469;51.114;13.914;2023-07-31T15:52:23;4.07;;;2.47;;
18677;SDS011;9469;51.114;13.914;2023-07-31T15:57:29;6.83;;;2.07;;
18677;SDS011;9469;51.114;13.914;2023-07-31T16:02:34;6.57;;;2.20;;
18677;SDS011;9469;51.114;13.914;2023-07-31T16:07:42;3.33;;;1.93;;
18677;SDS011;9469;51.114;13.914;2023-07-31T16:12:47;5.77;;;2.30;;
18677;SDS011;9469;51.114;13.914;2023-07-31T16:17:52;4.27;;;2.20;;
18677;SDS011;9469;51.114;13.914;2023-07-31T16:23:01;4.30;;;2.40;;
18677;SDS011;9469;51.114;13.914;2023-07-31T16:28:08;6.07;;;2.17;;
18677;SDS011;9469;51.114;13.914;2023-07-31T16:33:13;4.83;;;2.47;;
18677;SDS011;9469;51.114;13.914;2023-07-31T16:38:24;4.07;;;1.80;;
18677;SDS011;9469;51.114;13.914;2023-07-31T16:43:29;5.23;;;2.03;;
18677;SDS011;9469;51.114;13.914;2023-07-31T16:48:34;4.83;;;1.77;;
18677;SDS011;9469;51.114;13.914;2023-07-31T16:53:42;3.40;;;2.00;;
18677;SDS011;9469;51.114;13.914;2023-07-31T16:58:50;5.53;;;2.30;;
18677;SDS011;9469;51.114;13.914;2023-07-31T17:03:56;3.87;;;2.47;;
18677;SDS011;9469;51.114;13.914;2023-07-31T17:09:04;4.63;;;2.77;;
18677;SDS011;9469;51.114;13.914;2023-07-31T17:14:09;5.63;;;2.43;;
18677;SDS011;9469;51.114;13.914;2023-07-31T17:19:17;3.13;;;2.13;;
18677;SDS011;9469;51.114;13.914;2023-07-31T17:24:25;4.67;;;2.30;;
18677;SDS011;9469;51.114;13.914;2023-07-31T17:29:30;3.77;;;2.63;;
18677;SDS011;9469;51.114;13.914;2023-07-31T17:34:36;4.87;;;2.40;;
18677;SDS011;9469;51.114;13.914;2023-07-31T17:39:44;4.27;;;2.47;;
18677;SDS011;9469;51.114;13.914;2023-07-31T17:44:50;4.00;;;2.20;;
18677;SDS011;9469;51.114;13.914;2023-07-31T17:49:57;4.80;;;2.63;;
18677;SDS011;9469;51.114;13.914;2023-07-31T17:55:05;4.50;;;2.50;;
18677;SDS011;9469;51.114;13.914;2023-07-31T18:00:12;5.47;;;2.63;;
18677;SDS011;9469;51.114;13.914;2023-07-31T18:05:17;4.97;;;2.30;;
18677;SDS011;9469;51.114;13.914;2023-07-31T18:10:26;7.53;;;2.90;;
18677;SDS011;9469;51.114;13.914;2023-07-31T18:15:31;6.83;;;2.73;;
18677;SDS011;9469;51.114;13.914;2023-07-31T18:20:36;4.17;;;2.53;;
18677;SDS011;9469;51.114;13.914;2023-07-31T18:25:46;4.27;;;2.70;;
18677;SDS011;9469;51.114;13.914;2023-07-31T18:30:56;8.20;;;2.80;;
18677;SDS011;9469;51.114;13.914;2023-07-31T18:36:02;4.53;;;2.37;;
18677;SDS011;9469;51.114;13.914;2023-07-31T18:41:13;6.43;;;2.47;;
18677;SDS011;9469;51.114;13.914;2023-07-31T18:46:18;4.57;;;2.63;;
18677;SDS011;9469;51.114;13.914;2023-07-31T18:51:24;3.20;;;2.50;;
18677;SDS011;9469;51.114;13.914;2023-07-31T18:56:32;3.80;;;2.40;;
18677;SDS011;9469;51.114;13.914;2023-07-31T19:01:38;5.47;;;2.63;;
18677;SDS011;9469;51.114;13.914;2023-07-31T19:06:46;3.40;;;2.20;;
18677;SDS011;9469;51.114;13.914;2023-07-31T19:11:54;7.93;;;2.93;;
18677;SDS011;9469;51.114;13.914;2023-07-31T19:16:59;5.17;;;3.20;;
18677;SDS011;9469;51.114;13.914;2023-07-31T19:22:04;4.70;;;2.77;;
18677;SDS011;9469;51.114;13.914;2023-07-31T19:27:13;4.50;;;2.73;;
18677;SDS011;9469;51.114;13.914;2023-07-31T19:32:18;5.00;;;2.40;;
18677;SDS011;9469;51.114;13.914;2023-07-31T19:37:23;4.50;;;2.70;;
18677;SDS011;9469;51.114;13.914;2023-07-31T19:42:31;5.80;;;3.07;;
18677;SDS011;9469;51.114;13.914;2023-07-31T19:47:41;5.03;;;2.70;;
18677;SDS011;9469;51.114;13.914;2023-07-31T19:52:46;3.87;;;2.70;;
18677;SDS011;9469;51.114;13.914;2023-07-31T19:57:54;4.50;;;2.37;;
18677;SDS011;9469;51.114;13.914;2023-07-31T20:02:59;5.60;;;2.47;;
18677;SDS011;9469;51.114;13.914;2023-07-31T20:08:04;4.90;;;2.83;;
18677;SDS011;9469;51.114;13.914;2023-07-31T20:13:12;4.57;;;2.93;;
18677;SDS011;9469;51.114;13.914;2023-07-31T20:18:17;6.80;;;2.70;;
18677;SDS011;9469;51.114;13.914;2023-07-31T20:23:24;4.47;;;2.77;;
18677;SDS011;9469;51.114;13.914;2023-07-31T20:28:46;4.70;;;2.73;;
18677;SDS011;9469;51.114;13.914;2023-07-31T20:33:51;5.47;;;3.03;;
18677;SDS011;9469;51.114;13.914;2023-07-31T20:38:57;5.63;;;3.33;;
18677;SDS011;9469;51.114;13.914;2023-07-31T20:44:05;4.63;;;2.83;;
18677;SDS011;9469;51.114;13.914;2023-07-31T20:49:11;4.57;;;2.87;;
18677;SDS011;9469;51.114;13.914;2023-07-31T20:54:16;5.60;;;3.37;;
18677;SDS011;9469;51.114;13.914;2023-07-31T20:59:24;3.73;;;2.43;;
18677;SDS011;9469;51.114;13.914;2023-07-31T21:04:29;5.30;;;3.30;;
18677;SDS011;9469;51.114;13.914;2023-07-31T21:09:38;4.07;;;2.67;;
18677;SDS011;9469;51.114;13.914;2023-07-31T21:14:48;5.40;;;3.10;;
18677;SDS011;9469;51.114;13.914;2023-07-31T21:19:53;6.93;;;3.00;;
18677;SDS011;9469;51.114;13.914;2023-07-31T21:24:58;5.40;;;2.90;;
18677;SDS011;9469;51.114;13.914;2023-07-31T21:30:08;4.13;;;2.67;;
18677;SDS011;9469;51.114;13.914;2023-07-31T21:35:13;6.27;;;3.00;;
18677;SDS011;9469;51.114;13.914;2023-07-31T21:40:18;3.90;;;2.70;;
18677;SDS011;9469;51.114;13.914;2023-07-31T21:45:27;5.93;;;2.60;;
18677;SDS011;9469;51.114;13.914;2023-07-31T21:50:32;9.27;;;3.17;;
18677;SDS011;9469;51.114;13.914;2023-07-31T21:55:38;4.70;;;3.00;;
18677;SDS011;9469;51.114;13.914;2023-07-31T22:00:45;3.90;;;2.80;;
18677;SDS011;9469;51.114;13.914;2023-07-31T22:05:51;7.57;;;3.00;;
18677;SDS011;9469;51.114;13.914;2023-07-31T22:10:56;4.93;;;2.93;;
18677;SDS011;9469;51.114;13.914;2023-07-31T22:16:04;6.33;;;3.20;;
18677;SDS011;9469;51.114;13.914;2023-07-31T22:21:11;5.47;;;2.50;;
18677;SDS011;9469;51.114;13.914;2023-07-31T22:26:20;5.67;;;3.33;;
18677;SDS011;9469;51.114;13.914;2023-07-31T22:31:28;9.40;;;2.80;;
18677;SDS011;9469;51.114;13.914;2023-07-31T22:36:35;5.33;;;3.03;;
18677;SDS011;9469;51.114;13.914;2023-07-31T22:41:41;5.20;;;2.83;;
18677;SDS011;9469;51.114;13.914;2023-07-31T22:46:49;7.73;;;2.80;;
18677;SDS011;9469;51.114;13.914;2023-07-31T22:51:54;3.10;;;2.50;;
18677;SDS011;9469;51.114;13.914;2023-07-31T22:57:00;5.33;;;3.03;;
18677;SDS011;9469;51.114;13.914;2023-07-31T23:02:08;6.03;;;2.60;;
18677;SDS011;9469;51.114;13.914;2023-07-31T23:07:14;7.43;;;2.80;;
18677;SDS011;9469;51.114;13.914;2023-07-31T23:12:19;5.47;;;2.73;;
18677;SDS011;9469;51.114;13.914;2023-07-31T23:17:27;3.27;;;2.50;;
18677;SDS011;9469;51.114;13.914;2023-07-31T23:22:32;3.37;;;2.60;;
18677;SDS011;9469;51.114;13.914;2023-07-31T23:27:39;6.47;;;3.00;;
18677;SDS011;9469;51.114;13.914;2023-07-31T23:32:50;4.57;;;2.50;;
18677;SDS011;9469;51.114;13.914;2023-07-31T23:37:55;5.70;;;2.60;;
18677;SDS011;9469;51.114;13.914;2023-07-31T23:43:00;10.60;;;2.60;;
18677;SDS011;9469;51.114;13.914;2023-07-31T23:48:08;4.07;;;2.83;;
18677;SDS011;9469;51.114;13.914;2023-07-31T23:53:13;5.57;;;2.47;;
18677;SDS011;9469;51.114;13.914;2023-07-31T23:58:18;4.43;;;2.60;;
